Time;durP1;ratioP1;P1;durP2;ratioP2;P2;SDS_P1;SDS_P2;PMS_P1;PMS_P2;Temp;Humidity;BMP_temperature;BMP_pressure;BME280_temperature;BME280_humidity;BME280_pressure;Samples;Min_cycle;Max_cycle;Signal;HPM_P1;HPM_P2
2021/07/16 00:00:34;;;;;;;49.67;40.87;;;;;;;21.06;nan;98672.22;2097652;28;20491;-72
2021/07/16 00:01:35;;;;;;;45.00;40.17;;;;;;;21.09;nan;98673.41;2096972;28;20444;-72
2021/07/16 00:02:36;;;;;;;44.23;39.43;;;;;;;21.02;nan;98655.13;2096994;28;20302;-72
2021/07/16 00:03:38;;;;;;;46.17;41.17;;;;;;;21.09;nan;98663.31;2097472;28;20459;-73
2021/07/16 00:04:38;;;;;;;49.70;40.83;;;;;;;21.08;nan;98659.06;2097172;28;20226;-72
2021/07/16 00:05:40;;;;;;;48.17;39.20;;;;;;;21.12;nan;98654.44;2097020;28;20456;-72
2021/07/16 00:06:40;;;;;;;44.90;40.03;;;;;;;21.04;nan;98663.69;2097646;28;20248;-72
2021/07/16 00:07:42;;;;;;;45.73;40.63;;;;;;;20.97;nan;98668.25;2097746;28;20441;-72
2021/07/16 00:08:43;;;;;;;48.70;39.23;;;;;;;20.96;nan;98670.19;2096921;28;20222;-73
2021/07/16 00:09:45;;;;;;;44.17;38.53;;;;;;;20.93;nan;98681.00;2096895;28;20448;-72
2021/07/16 00:10:46;;;;;;;44.23;38.50;;;;;;;20.87;nan;98684.06;2096797;28;20296;-72
2021/07/16 00:11:47;;;;;;;46.20;36.90;;;;;;;20.87;nan;98694.91;2096841;28;20544;-72
2021/07/16 00:12:50;;;;;;;46.40;37.60;;;;;;;20.92;nan;98699.22;2097733;28;20452;-72
2021/07/16 00:13:52;;;;;;;45.33;37.37;;;;;;;20.92;nan;98703.84;2097615;28;20361;-71
2021/07/16 00:14:53;;;;;;;42.87;37.27;;;;;;;20.86;nan;98706.16;2097274;28;20488;-73
2021/07/16 00:15:54;;;;;;;43.63;36.07;;;;;;;20.88;nan;98709.25;2097205;28;20460;-72
2021/07/16 00:16:56;;;;;;;48.07;37.83;;;;;;;20.89;nan;98703.47;2096440;28;20449;-72
2021/07/16 00:17:57;;;;;;;39.77;35.60;;;;;;;20.89;nan;98719.72;2096417;28;20272;-73
2021/07/16 00:18:58;;;;;;;39.83;34.93;;;;;;;20.92;nan;98720.91;2096944;28;20479;-72
2021/07/16 00:20:00;;;;;;;40.00;35.73;;;;;;;20.93;nan;98727.88;2097494;28;20464;-72
2021/07/16 00:21:02;;;;;;;40.67;36.23;;;;;;;20.96;nan;98723.66;2097376;28;20962;-72
2021/07/16 00:22:04;;;;;;;41.33;36.87;;;;;;;20.94;nan;98737.59;2096687;28;20469;-72
2021/07/16 00:23:05;;;;;;;40.73;36.33;;;;;;;20.99;nan;98733.75;2096857;28;20487;-72
2021/07/16 00:24:06;;;;;;;43.47;36.83;;;;;;;21.02;nan;98735.72;2097497;28;20444;-72
2021/07/16 00:25:09;;;;;;;40.20;35.10;;;;;;;21.08;nan;98737.72;2097337;28;20222;-73
2021/07/16 00:26:11;;;;;;;41.43;37.07;;;;;;;21.07;nan;98743.53;2097588;28;20452;-72
2021/07/16 00:27:12;;;;;;;41.60;36.53;;;;;;;21.08;nan;98740.44;2096700;28;20468;-72
2021/07/16 00:28:13;;;;;;;41.90;37.47;;;;;;;21.09;nan;98741.22;2096756;28;20440;-72
2021/07/16 00:29:15;;;;;;;40.67;35.70;;;;;;;21.11;nan;98730.75;2097592;28;20685;-72
2021/07/16 00:30:18;;;;;;;41.57;36.30;;;;;;;21.15;nan;98729.66;2097642;28;20528;-72
2021/07/16 00:31:19;;;;;;;43.30;38.83;;;;;;;21.16;nan;98735.84;2096717;28;20535;-71
2021/07/16 00:32:21;;;;;;;42.27;36.23;;;;;;;21.19;nan;98729.69;2096885;28;20456;-72
2021/07/16 00:33:21;;;;;;;40.47;36.00;;;;;;;21.12;nan;98733.13;2096363;28;20242;-75
2021/07/16 00:34:23;;;;;;;39.30;35.10;;;;;;;21.07;nan;98729.97;2096663;28;20490;-73
2021/07/16 00:35:24;;;;;;;39.00;34.33;;;;;;;20.99;nan;98731.06;2097578;28;20233;-72
2021/07/16 00:36:25;;;;;;;38.57;34.43;;;;;;;20.93;nan;98737.97;2096593;28;20480;-72
2021/07/16 00:37:26;;;;;;;41.07;35.47;;;;;;;20.92;nan;98741.81;2088697;28;20736;-72
2021/07/16 00:38:28;;;;;;;39.17;35.00;;;;;;;20.86;nan;98734.03;2096568;28;20816;-72
2021/07/16 00:39:28;;;;;;;38.50;34.43;;;;;;;20.82;nan;98741.34;2097532;28;20222;-72
2021/07/16 00:40:30;;;;;;;40.07;34.03;;;;;;;20.78;nan;98737.84;2097385;28;20445;-72
2021/07/16 00:41:31;;;;;;;36.70;32.90;;;;;;;20.78;nan;98743.25;2097470;28;20309;-73
2021/07/16 00:42:32;;;;;;;37.83;33.30;;;;;;;20.79;nan;98739.38;2097408;28;21009;-72
2021/07/16 00:43:33;;;;;;;42.83;33.97;;;;;;;20.80;nan;98748.31;2096940;28;20218;-73
2021/07/16 00:44:36;;;;;;;37.10;33.23;;;;;;;20.78;nan;98754.09;2096701;28;20433;-72
2021/07/16 00:45:37;;;;;;;36.73;32.93;;;;;;;20.78;nan;98753.31;2097141;28;20581;-73
2021/07/16 00:46:39;;;;;;;36.60;32.93;;;;;;;20.79;nan;98744.81;2097457;28;20474;-73
2021/07/16 00:47:40;;;;;;;37.77;33.97;;;;;;;20.81;nan;98741.72;2097409;28;20249;-72
2021/07/16 00:48:42;;;;;;;40.07;33.57;;;;;;;20.78;nan;98745.97;2097214;28;20981;-72
2021/07/16 00:49:42;;;;;;;46.17;35.83;;;;;;;20.77;nan;98741.69;2097316;28;20453;-72
2021/07/16 00:50:44;;;;;;;38.17;33.90;;;;;;;20.74;nan;98734.28;2097294;28;20445;-73
2021/07/16 00:51:45;;;;;;;37.37;33.50;;;;;;;20.75;nan;98741.25;2097244;28;20257;-72
2021/07/16 00:52:48;;;;;;;37.43;33.30;;;;;;;20.77;nan;98732.78;2096778;28;20463;-72
2021/07/16 00:53:48;;;;;;;36.53;32.87;;;;;;;20.83;nan;98732.06;2096635;28;20449;-72
2021/07/16 00:54:50;;;;;;;42.10;33.67;;;;;;;20.85;nan;98734.41;2097372;28;20539;-73
2021/07/16 00:55:51;;;;;;;36.93;33.10;;;;;;;20.86;nan;98725.13;2097345;28;20695;-72
2021/07/16 00:56:53;;;;;;;37.47;33.67;;;;;;;20.88;nan;98720.88;2096096;28;20823;-75
2021/07/16 00:57:54;;;;;;;37.23;33.10;;;;;;;20.94;nan;98725.94;2096513;28;20226;-73
2021/07/16 00:58:55;;;;;;;37.77;33.07;;;;;;;20.98;nan;98721.34;2097310;28;20448;-72
2021/07/16 00:59:57;;;;;;;37.40;32.13;;;;;;;20.97;nan;98725.22;2096524;28;20532;-72
2021/07/16 01:00:59;;;;;;;36.73;32.90;;;;;;;20.99;nan;98723.69;2096704;28;20506;-72
2021/07/16 01:02:00;;;;;;;35.30;31.60;;;;;;;21.03;nan;98718.31;2096783;28;20475;-72
2021/07/16 01:03:02;;;;;;;40.03;31.53;;;;;;;21.05;nan;98724.91;2096542;28;20460;-72
2021/07/16 01:04:03;;;;;;;35.67;31.57;;;;;;;21.04;nan;98726.06;2097292;28;20245;-72
2021/07/16 01:05:06;;;;;;;34.33;31.00;;;;;;;21.02;nan;98730.28;2097249;28;20445;-73
2021/07/16 01:06:07;;;;;;;35.00;30.30;;;;;;;21.01;nan;98729.50;2096946;28;20625;-73
2021/07/16 01:07:09;;;;;;;35.07;31.53;;;;;;;21.02;nan;98735.72;2096398;28;20453;-73
2021/07/16 01:08:10;;;;;;;35.93;31.03;;;;;;;21.01;nan;98739.59;2088578;28;20250;-71
2021/07/16 01:09:11;;;;;;;37.40;32.73;;;;;;;20.97;nan;98736.84;2096597;28;20440;-72
2021/07/16 01:10:12;;;;;;;36.87;32.30;;;;;;;20.97;nan;98738.78;2097303;28;20321;-72
2021/07/16 01:11:14;;;;;;;35.27;31.37;;;;;;;20.95;nan;98741.09;2096500;28;20456;-73
2021/07/16 01:12:14;;;;;;;35.60;30.83;;;;;;;20.93;nan;98744.16;2096352;28;21009;-72
2021/07/16 01:13:16;;;;;;;34.83;30.83;;;;;;;20.94;nan;98744.94;2097195;28;20879;-72
2021/07/16 01:14:17;;;;;;;33.80;30.30;;;;;;;20.95;nan;98749.22;2097176;28;20704;-72
2021/07/16 01:15:22;;;;;;;36.03;30.10;;;;;;;20.95;nan;98749.22;2097153;28;20831;-72
2021/07/16 01:16:22;;;;;;;33.10;30.13;;;;;;;20.96;nan;98748.06;2096830;28;20225;-73
2021/07/16 01:17:25;;;;;;;33.60;30.17;;;;;;;21.00;nan;98754.31;2097225;28;20452;-73
2021/07/16 01:18:25;;;;;;;34.20;30.87;;;;;;;21.02;nan;98757.41;2097136;28;20217;-73
2021/07/16 01:19:36;;;;;;;33.67;30.20;;;;;;;20.99;nan;98761.66;2096405;28;20463;-72
2021/07/16 01:20:36;;;;;;;32.50;29.30;;;;;;;21.00;nan;98765.94;2096461;28;20214;-72
2021/07/16 01:21:39;;;;;;;34.20;30.87;;;;;;;20.97;nan;98763.19;2095817;28;20483;-73
2021/07/16 01:22:41;;;;;;;36.00;30.00;;;;;;;20.93;nan;98762.38;2088193;28;20275;-73
2021/07/16 01:23:44;;;;;;;35.60;31.90;;;;;;;20.89;nan;98763.13;2096440;28;20448;-73
2021/07/16 01:24:45;;;;;;;35.70;31.17;;;;;;;20.89;nan;98765.06;2096507;28;20476;-71
2021/07/16 01:25:47;;;;;;;34.20;30.67;;;;;;;20.87;nan;98768.16;2088027;28;20445;-72
2021/07/16 01:26:48;;;;;;;33.77;30.13;;;;;;;20.83;nan;98761.88;2087872;28;20449;-73
2021/07/16 01:27:51;;;;;;;32.20;28.70;;;;;;;20.82;nan;98770.41;2096359;28;20440;-73
2021/07/16 01:28:52;;;;;;;32.90;27.37;;;;;;;20.72;nan;98761.00;2096538;28;20242;-73
2021/07/16 01:29:54;;;;;;;30.57;27.57;;;;;;;20.71;nan;98758.66;2096247;28;20475;-72
2021/07/16 01:30:55;;;;;;;30.20;27.30;;;;;;;20.68;nan;98765.63;2088369;28;20258;-72
2021/07/16 01:31:57;;;;;;;32.27;29.07;;;;;;;20.65;nan;98758.19;2087946;28;20461;-72
2021/07/16 01:33:00;;;;;;;30.80;27.50;;;;;;;20.64;nan;98756.66;2096374;28;20299;-72
2021/07/16 01:34:02;;;;;;;29.40;26.60;;;;;;;20.63;nan;98757.03;2097068;28;20445;-72
2021/07/16 01:35:03;;;;;;;28.87;26.30;;;;;;;20.60;nan;98755.84;2097066;28;20444;-72
2021/07/16 01:36:05;;;;;;;29.30;26.40;;;;;;;20.56;nan;98757.72;2096112;28;20479;-72
2021/07/16 01:37:06;;;;;;;29.50;26.60;;;;;;;20.53;nan;98744.91;2096392;28;20800;-72
2021/07/16 01:38:08;;;;;;;28.20;25.67;;;;;;;20.51;nan;98748.00;2095748;28;20539;-73
2021/07/16 01:39:10;;;;;;;28.50;25.70;;;;;;;20.45;nan;98745.97;2096224;28;20333;-72
2021/07/16 01:40:14;;;;;;;28.73;25.83;;;;;;;20.45;nan;98751.41;2097058;28;20456;-72
2021/07/16 01:41:14;;;;;;;29.30;26.73;;;;;;;20.46;nan;98747.53;2096596;28;20826;-71
2021/07/16 01:42:17;;;;;;;30.30;27.20;;;;;;;20.43;nan;98751.75;2096378;28;20538;-72
2021/07/16 01:43:18;;;;;;;29.20;26.53;;;;;;;20.43;nan;98748.25;2097133;28;20218;-72
2021/07/16 01:44:19;;;;;;;30.33;26.67;;;;;;;20.41;nan;98750.53;2097166;28;20471;-72
2021/07/16 01:45:23;;;;;;;28.83;25.90;;;;;;;20.41;nan;98750.53;2096270;28;20253;-72
2021/07/16 01:46:25;;;;;;;29.30;26.30;;;;;;;20.38;nan;98752.06;2088291;28;20962;-72
2021/07/16 01:47:25;;;;;;;30.30;27.27;;;;;;;20.39;nan;98763.66;2088131;28;20457;-72
2021/07/16 01:48:30;;;;;;;28.90;26.03;;;;;;;20.36;nan;98762.47;2087922;28;20445;-72
2021/07/16 01:49:31;;;;;;;29.80;27.10;;;;;;;20.33;nan;98772.13;2087987;28;20452;-72
2021/07/16 01:50:34;;;;;;;30.73;27.80;;;;;;;20.33;nan;98769.44;2088009;28;20445;-72
2021/07/16 01:51:35;;;;;;;29.43;26.37;;;;;;;20.30;nan;98769.38;2088745;28;20227;-72
2021/07/16 01:52:36;;;;;;;29.97;27.03;;;;;;;20.28;nan;98767.03;2088012;28;20450;-72
2021/07/16 01:53:37;;;;;;;29.93;26.77;;;;;;;20.28;nan;98772.44;2079229;28;20247;-72
2021/07/16 01:54:40;;;;;;;30.43;27.47;;;;;;;20.27;nan;98773.59;2087952;28;20508;-72
2021/07/16 01:55:41;;;;;;;30.53;27.47;;;;;;;20.23;nan;98770.03;2088645;28;20251;-72
2021/07/16 01:56:42;;;;;;;30.93;27.80;;;;;;;20.22;nan;98775.84;2088698;28;20457;-73
2021/07/16 01:57:44;;;;;;;30.80;27.47;;;;;;;20.20;nan;98773.50;2088667;28;20547;-72
2021/07/16 01:58:46;;;;;;;31.40;28.37;;;;;;;20.21;nan;98774.28;2088732;28;20495;-72
2021/07/16 01:59:46;;;;;;;29.87;27.17;;;;;;;20.20;nan;98773.50;2088700;28;20457;-72
2021/07/16 02:00:49;;;;;;;31.00;27.47;;;;;;;20.19;nan;98779.28;2088582;28;20437;-72
2021/07/16 02:01:50;;;;;;;30.07;27.23;;;;;;;20.20;nan;98773.50;2088661;28;20246;-72
2021/07/16 02:02:53;;;;;;;30.17;27.43;;;;;;;20.19;nan;98780.06;2088648;28;20512;-72
2021/07/16 02:03:57;;;;;;;30.70;27.77;;;;;;;20.21;nan;98780.47;2088300;28;21023;-72
2021/07/16 02:04:58;;;;;;;30.60;27.73;;;;;;;20.21;nan;98782.41;2088663;28;20450;-72
2021/07/16 02:06:00;;;;;;;30.83;27.93;;;;;;;20.20;nan;98792.47;2088188;28;20444;-72
2021/07/16 02:07:01;;;;;;;31.00;28.10;;;;;;;20.23;nan;98783.59;2087953;28;20268;-72
2021/07/16 02:08:05;;;;;;;30.70;27.70;;;;;;;20.27;nan;98784.44;2088688;28;20468;-72
2021/07/16 02:09:07;;;;;;;29.93;27.17;;;;;;;20.27;nan;98784.44;2088587;28;20861;-72
2021/07/16 02:10:11;;;;;;;31.30;27.93;;;;;;;20.33;nan;98779.47;2088299;28;20998;-72
2021/07/16 02:11:12;;;;;;;30.27;27.47;;;;;;;20.36;nan;98776.03;2088413;28;20821;-72
2021/07/16 02:12:13;;;;;;;29.40;26.50;;;;;;;20.35;nan;98779.13;2087756;28;20468;-72
2021/07/16 02:13:15;;;;;;;29.97;27.03;;;;;;;20.35;nan;98779.13;2087890;28;20222;-72
2021/07/16 02:14:16;;;;;;;31.60;28.60;;;;;;;20.37;nan;98782.22;2088661;28;20486;-71
2021/07/16 02:15:19;;;;;;;29.00;26.43;;;;;;;20.33;nan;98777.56;2088048;28;20540;-72
2021/07/16 02:16:21;;;;;;;29.77;26.73;;;;;;;20.33;nan;98772.13;2087891;28;20460;-72
2021/07/16 02:17:21;;;;;;;31.33;28.40;;;;;;;20.38;nan;98783.78;2088104;28;20449;-75
2021/07/16 02:18:23;;;;;;;34.10;26.37;;;;;;;20.37;nan;98779.53;2087931;28;20465;-72
2021/07/16 02:19:24;;;;;;;29.70;25.83;;;;;;;20.35;nan;98777.19;2087826;28;20226;-72
2021/07/16 02:20:27;;;;;;;29.97;27.03;;;;;;;20.31;nan;98777.13;2088630;28;20477;-72
2021/07/16 02:21:28;;;;;;;32.00;28.47;;;;;;;20.27;nan;98776.31;2087531;28;20262;-72
2021/07/16 02:22:30;;;;;;;31.77;28.50;;;;;;;20.27;nan;98776.31;2087899;28;20533;-72
2021/07/16 02:23:30;;;;;;;33.63;28.50;;;;;;;20.25;nan;98775.91;2088098;28;20293;-72
2021/07/16 02:24:32;;;;;;;31.33;28.00;;;;;;;20.20;nan;98772.72;2087860;28;20456;-72
2021/07/16 02:25:35;;;;;;;30.43;27.57;;;;;;;20.19;nan;98771.94;2088552;28;20242;-72
2021/07/16 02:26:36;;;;;;;30.83;27.77;;;;;;;20.17;nan;98765.34;2088716;28;20848;-72
2021/07/16 02:27:38;;;;;;;29.27;26.27;;;;;;;20.16;nan;98769.97;2087995;28;20457;-73
2021/07/16 02:28:40;;;;;;;31.13;28.13;;;;;;;20.19;nan;98771.94;2088451;28;20831;-72
2021/07/16 02:29:40;;;;;;;31.53;28.27;;;;;;;20.25;nan;98767.00;2087950;28;20454;-72
2021/07/16 02:30:42;;;;;;;30.37;27.33;;;;;;;20.31;nan;98776.34;2079516;28;20496;-72
2021/07/16 02:31:42;;;;;;;34.23;27.80;;;;;;;20.38;nan;98762.09;2087742;28;20574;-73
2021/07/16 02:32:44;;;;;;;30.63;27.60;;;;;;;20.38;nan;98765.59;2087576;28;20468;-72
2021/07/16 02:33:45;;;;;;;29.90;27.00;;;;;;;20.41;nan;98772.19;2087767;28;20227;-72
2021/07/16 02:34:47;;;;;;;31.17;27.87;;;;;;;20.37;nan;98771.38;2088053;28;20444;-72
2021/07/16 02:35:48;;;;;;;30.00;27.30;;;;;;;20.31;nan;98765.50;2087797;28;20726;-72
2021/07/16 02:36:49;;;;;;;31.43;28.20;;;;;;;20.30;nan;98769.38;2088676;28;20819;-72
2021/07/16 02:37:50;;;;;;;29.70;27.13;;;;;;;20.26;nan;98768.56;2087981;28;20297;-72
2021/07/16 02:38:52;;;;;;;30.40;27.23;;;;;;;20.19;nan;98766.53;2087844;28;20453;-72
2021/07/16 02:39:53;;;;;;;31.80;28.53;;;;;;;20.18;nan;98761.47;2088206;28;20672;-72
2021/07/16 02:40:56;;;;;;;30.00;27.20;;;;;;;20.13;nan;98757.13;2089587;28;20840;-73
2021/07/16 02:41:57;;;;;;;31.00;27.97;;;;;;;20.08;nan;98760.19;2090198;28;20257;-72
2021/07/16 02:42:58;;;;;;;32.67;27.93;;;;;;;20.04;nan;98757.41;2090145;28;20445;-72
2021/07/16 02:43:59;;;;;;;31.73;28.80;;;;;;;19.99;nan;98756.97;2089197;28;20257;-72
2021/07/16 02:45:03;;;;;;;30.20;27.33;;;;;;;19.93;nan;98753.00;2081438;28;20450;-73
2021/07/16 02:46:05;;;;;;;34.23;29.00;;;;;;;19.91;nan;98758.00;2089447;28;20223;-72
2021/07/16 02:47:06;;;;;;;31.70;28.50;;;;;;;19.86;nan;98758.31;2090114;28;20477;-72
2021/07/16 02:48:08;;;;;;;32.57;29.07;;;;;;;19.83;nan;98762.53;2088938;28;20468;-73
2021/07/16 02:49:08;;;;;;;30.47;27.53;;;;;;;19.80;nan;98763.25;2081272;28;20239;-72
2021/07/16 02:50:12;;;;;;;31.07;28.20;;;;;;;19.78;nan;98752.00;2089270;28;20461;-72
2021/07/16 02:51:12;;;;;;;32.40;29.00;;;;;;;19.75;nan;98750.03;2083799;28;20307;-72
2021/07/16 02:52:14;;;;;;;31.23;27.87;;;;;;;19.72;nan;98746.16;2080987;28;20450;-72
2021/07/16 02:53:16;;;;;;;31.27;28.03;;;;;;;19.77;nan;98756.63;2089211;28;20673;-72
2021/07/16 02:54:18;;;;;;;32.37;28.93;;;;;;;19.76;nan;98755.09;2089404;28;20449;-72
2021/07/16 02:55:19;;;;;;;30.63;27.50;;;;;;;19.79;nan;98747.38;2081013;28;20556;-72
2021/07/16 02:56:23;;;;;;;30.43;27.50;;;;;;;19.76;nan;98759.72;2087175;28;20449;-72
2021/07/16 02:57:23;;;;;;;36.20;27.50;;;;;;;19.73;nan;98752.34;2080804;28;20471;-73
2021/07/16 02:58:25;;;;;;;29.70;26.60;;;;;;;19.72;nan;98750.75;2089336;28;20457;-73
2021/07/16 02:59:26;;;;;;;31.43;26.67;;;;;;;19.70;nan;98748.41;2089245;28;20227;-72
2021/07/16 03:00:29;;;;;;;30.47;27.67;;;;;;;19.68;nan;98742.59;2080864;28;20454;-72
2021/07/16 03:01:30;;;;;;;30.37;27.37;;;;;;;19.65;nan;98748.75;2089198;28;20249;-72
2021/07/16 03:02:38;;;;;;;29.80;26.80;;;;;;;19.63;nan;98740.19;2089922;28;21004;-72
2021/07/16 03:03:39;;;;;;;30.80;27.70;;;;;;;19.63;nan;98744.81;2088771;28;20693;-73
2021/07/16 03:04:41;;;;;;;32.17;26.70;;;;;;;19.61;nan;98741.69;2089233;28;20457;-72
2021/07/16 03:05:41;;;;;;;31.70;26.80;;;;;;;19.59;nan;98728.53;2089131;28;20309;-73
2021/07/16 03:06:43;;;;;;;29.73;26.93;;;;;;;19.57;nan;98733.53;2089111;28;20985;-72
2021/07/16 03:07:44;;;;;;;29.37;26.20;;;;;;;19.56;nan;98733.88;2089190;28;20227;-72
2021/07/16 03:08:46;;;;;;;30.37;27.27;;;;;;;19.54;nan;98725.31;2089079;28;20442;-72
2021/07/16 03:09:47;;;;;;;31.53;27.23;;;;;;;19.56;nan;98728.47;2080799;28;20489;-72
2021/07/16 03:10:48;;;;;;;30.63;27.40;;;;;;;19.54;nan;98725.31;2088969;28;20453;-72
2021/07/16 03:11:50;;;;;;;31.17;28.07;;;;;;;19.53;nan;98721.81;2089235;28;20309;-71
2021/07/16 03:12:54;;;;;;;30.13;26.93;;;;;;;19.56;nan;98723.84;2089137;28;20780;-72
2021/07/16 03:13:55;;;;;;;30.93;27.80;;;;;;;19.58;nan;98726.97;2089618;28;20496;-72
2021/07/16 03:14:56;;;;;;;30.13;27.10;;;;;;;19.61;nan;98723.53;2089892;28;20454;-72
2021/07/16 03:15:57;;;;;;;30.47;27.13;;;;;;;19.59;nan;98716.94;2090076;28;20605;-72
2021/07/16 03:16:59;;;;;;;34.80;26.63;;;;;;;19.60;nan;98719.25;2089915;28;20475;-72
2021/07/16 03:18:00;;;;;;;30.23;27.23;;;;;;;19.59;nan;98716.94;2089831;28;20219;-72
2021/07/16 03:19:02;;;;;;;29.27;26.37;;;;;;;19.55;nan;98711.44;2090002;28;20442;-72
2021/07/16 03:20:04;;;;;;;30.13;27.00;;;;;;;19.54;nan;98715.25;2089967;28;20218;-72
2021/07/16 03:21:05;;;;;;;29.93;26.97;;;;;;;19.52;nan;98709.44;2089533;28;20472;-72
2021/07/16 03:22:06;;;;;;;29.27;26.13;;;;;;;19.53;nan;98702.88;2080583;28;20458;-72
2021/07/16 03:23:09;;;;;;;28.43;25.63;;;;;;;19.57;nan;98705.69;2082578;28;20537;-73
2021/07/16 03:24:09;;;;;;;29.03;26.20;;;;;;;19.55;nan;98700.63;2080583;28;20253;-72
2021/07/16 03:25:13;;;;;;;29.07;26.33;;;;;;;19.52;nan;98700.53;2074817;28;20467;-72
2021/07/16 03:26:14;;;;;;;29.93;25.73;;;;;;;19.52;nan;98689.72;2080848;28;20543;-73
2021/07/16 03:27:17;;;;;;;28.50;25.70;;;;;;;19.51;nan;98688.94;2088340;28;20455;-72
2021/07/16 03:28:19;;;;;;;29.53;26.53;;;;;;;19.55;nan;98695.19;2089090;28;20241;-72
2021/07/16 03:29:20;;;;;;;29.10;26.23;;;;;;;19.53;nan;98691.28;2089033;28;20453;-72
2021/07/16 03:30:22;;;;;;;29.03;26.23;;;;;;;19.47;nan;98691.59;2089061;28;20536;-72
2021/07/16 03:31:24;;;;;;;30.47;27.10;;;;;;;19.44;nan;98686.13;2089385;28;20928;-73
2021/07/16 03:32:24;;;;;;;29.07;25.90;;;;;;;19.43;nan;98689.97;2088806;28;20480;-72
2021/07/16 03:33:26;;;;;;;28.67;25.90;;;;;;;19.40;nan;98688.00;2088929;28;20460;-73
2021/07/16 03:34:27;;;;;;;29.47;26.53;;;;;;;19.40;nan;98691.50;2089855;28;20226;-73
2021/07/16 03:35:29;;;;;;;29.07;26.23;;;;;;;19.38;nan;98682.19;2089691;28;20441;-72
2021/07/16 03:36:30;;;;;;;28.63;25.83;;;;;;;19.36;nan;98684.44;2089495;28;20229;-72
2021/07/16 03:37:31;;;;;;;30.20;27.23;;;;;;;19.35;nan;98691.00;2089626;28;20781;-71
2021/07/16 03:38:32;;;;;;;30.10;26.90;;;;;;;19.29;nan;98677.03;2089724;28;20472;-72
2021/07/16 03:39:33;;;;;;;31.40;26.77;;;;;;;19.27;nan;98683.94;2089642;28;20246;-72
2021/07/16 03:40:35;;;;;;;34.43;26.53;;;;;;;19.27;nan;98684.72;2089174;28;20457;-72
2021/07/16 03:41:37;;;;;;;30.37;27.37;;;;;;;19.27;nan;98686.63;2089057;28;20223;-72
2021/07/16 03:42:40;;;;;;;29.77;26.77;;;;;;;19.25;nan;98686.22;2088472;28;20468;-73
2021/07/16 03:43:41;;;;;;;31.23;27.90;;;;;;;19.17;nan;98688.81;2089653;28;20995;-72
2021/07/16 03:44:42;;;;;;;31.33;28.03;;;;;;;19.17;nan;98679.91;2089683;28;20815;-72
2021/07/16 03:45:43;;;;;;;31.67;28.20;;;;;;;19.17;nan;98682.63;2088812;28;20313;-72
2021/07/16 03:46:44;;;;;;;33.60;28.90;;;;;;;19.15;nan;98685.69;2080499;28;20438;-72
2021/07/16 03:47:46;;;;;;;33.63;28.90;;;;;;;19.16;nan;98684.53;2088954;28;20234;-72
2021/07/16 03:48:48;;;;;;;32.63;28.17;;;;;;;19.17;nan;98690.72;2088745;28;20519;-72
2021/07/16 03:49:48;;;;;;;32.87;27.80;;;;;;;19.17;nan;98690.72;2088969;28;20469;-72
2021/07/16 03:50:50;;;;;;;31.57;28.37;;;;;;;19.16;nan;98697.28;2089577;28;20441;-72
2021/07/16 03:51:51;;;;;;;31.23;27.90;;;;;;;19.15;nan;98704.63;2089635;28;20243;-72
2021/07/16 03:52:53;;;;;;;34.17;27.80;;;;;;;19.14;nan;98697.66;2089230;28;20461;-75
2021/07/16 03:53:54;;;;;;;32.57;27.30;;;;;;;19.16;nan;98706.19;2088708;28;20591;-72
2021/07/16 03:54:56;;;;;;;31.77;28.30;;;;;;;19.15;nan;98699.22;2080627;28;20540;-72
2021/07/16 03:55:57;;;;;;;32.67;27.37;;;;;;;19.16;nan;98708.88;2088968;28;20701;-72
2021/07/16 03:56:58;;;;;;;31.60;27.47;;;;;;;19.16;nan;98711.59;2088817;28;20894;-72
2021/07/16 03:58:01;;;;;;;31.03;27.73;;;;;;;19.17;nan;98712.38;2088841;28;20305;-73
2021/07/16 03:59:02;;;;;;;30.53;27.27;;;;;;;19.17;nan;98713.16;2089564;28;20433;-72
2021/07/16 04:00:05;;;;;;;31.20;27.00;;;;;;;19.16;nan;98710.81;2080980;28;20455;-71
2021/07/16 04:01:09;;;;;;;32.53;27.93;;;;;;;19.16;nan;98708.88;2082279;28;20557;-72
2021/07/16 04:02:10;;;;;;;29.63;26.77;;;;;;;19.17;nan;98706.97;2089470;28;20498;-72
2021/07/16 04:03:12;;;;;;;31.10;27.47;;;;;;;19.18;nan;98714.72;2089488;28;20450;-73
2021/07/16 04:04:14;;;;;;;32.60;27.30;;;;;;;19.18;nan;98703.88;2088844;28;20223;-72
2021/07/16 04:05:16;;;;;;;30.23;26.93;;;;;;;19.19;nan;98713.56;2088759;28;20446;-73
2021/07/16 04:06:16;;;;;;;35.13;28.10;;;;;;;19.19;nan;98712.78;2089468;28;20503;-72
2021/07/16 04:07:22;;;;;;;29.40;26.50;;;;;;;19.23;nan;98704.75;2089521;28;20511;-72
2021/07/16 04:08:23;;;;;;;32.47;26.77;;;;;;;19.21;nan;98707.81;2089202;28;20227;-73
2021/07/16 04:09:28;;;;;;;31.47;26.90;;;;;;;19.22;nan;98708.59;2089007;28;20461;-72
2021/07/16 04:10:30;;;;;;;31.70;27.20;;;;;;;19.24;nan;98706.31;2088889;28;20448;-72
2021/07/16 04:11:31;;;;;;;29.20;26.40;;;;;;;19.24;nan;98711.72;2088853;28;20457;-72
2021/07/16 04:12:32;;;;;;;29.67;26.43;;;;;;;19.26;nan;98717.53;2088779;28;20453;-72
2021/07/16 04:13:35;;;;;;;30.30;27.20;;;;;;;19.26;nan;98718.31;2089479;28;20265;-72
2021/07/16 04:14:38;;;;;;;29.27;26.37;;;;;;;19.27;nan;98725.28;2089484;28;20483;-72
2021/07/16 04:15:40;;;;;;;29.43;26.50;;;;;;;19.26;nan;98722.94;2089080;28;20468;-72
2021/07/16 04:16:41;;;;;;;31.53;27.13;;;;;;;19.24;nan;98726.00;2089475;28;20469;-72
2021/07/16 04:17:43;;;;;;;40.57;26.87;;;;;;;19.29;nan;98722.25;2088786;28;20503;-72
2021/07/16 04:18:44;;;;;;;29.80;26.60;;;;;;;19.26;nan;98725.66;2088732;28;20226;-72
2021/07/16 04:19:46;;;;;;;30.57;26.40;;;;;;;19.26;nan;98731.84;2089308;28;20958;-72
2021/07/16 04:20:47;;;;;;;29.33;26.33;;;;;;;19.28;nan;98734.19;2089238;28;20437;-71
2021/07/16 04:21:48;;;;;;;30.47;27.57;;;;;;;19.25;nan;98726.78;2080782;28;20948;-71
2021/07/16 04:22:49;;;;;;;30.67;27.77;;;;;;;19.27;nan;98732.63;2080488;28;20446;-71
2021/07/16 04:23:50;;;;;;;29.57;26.53;;;;;;;19.26;nan;98737.25;2088593;28;20215;-72
2021/07/16 04:24:53;;;;;;;29.10;26.40;;;;;;;19.23;nan;98731.78;2088680;28;20474;-72
2021/07/16 04:25:54;;;;;;;29.23;26.20;;;;;;;19.24;nan;98730.66;2088982;28;20453;-72
2021/07/16 04:26:55;;;;;;;30.07;26.90;;;;;;;19.24;nan;98736.84;2089319;28;20971;-73
2021/07/16 04:27:57;;;;;;;30.37;27.47;;;;;;;19.21;nan;98740.28;2089347;28;20579;-71
2021/07/16 04:29:00;;;;;;;35.53;27.30;;;;;;;19.21;nan;98745.69;2089400;28;20507;-72
2021/07/16 04:30:00;;;;;;;31.07;27.73;;;;;;;19.20;nan;98744.13;2089377;28;21019;-71
2021/07/16 04:31:02;;;;;;;29.73;27.07;;;;;;;19.23;nan;98743.38;2089313;28;20799;-72
2021/07/16 04:32:04;;;;;;;31.10;27.87;;;;;;;19.25;nan;98743.03;2088475;28;20261;-72
2021/07/16 04:33:06;;;;;;;31.30;28.10;;;;;;;19.24;nan;98742.25;2088429;28;20863;-72
2021/07/16 04:34:07;;;;;;;31.07;27.83;;;;;;;19.25;nan;98745.72;2088795;28;20815;-73
2021/07/16 04:35:10;;;;;;;30.93;27.87;;;;;;;19.26;nan;98747.28;2089140;28;20461;-72
2021/07/16 04:36:11;;;;;;;30.23;27.13;;;;;;;19.31;nan;98749.69;2088604;28;20301;-72
2021/07/16 04:37:12;;;;;;;32.13;28.73;;;;;;;19.34;nan;98748.97;2088489;28;20454;-73
2021/07/16 04:38:17;;;;;;;31.13;28.00;;;;;;;19.40;nan;98755.66;2089236;28;20567;-72
2021/07/16 04:39:18;;;;;;;30.53;27.37;;;;;;;19.43;nan;98753.00;2088989;28;20453;-72
2021/07/16 04:40:21;;;;;;;33.50;29.97;;;;;;;19.51;nan;98753.88;2089179;28;20450;-71
2021/07/16 04:41:22;;;;;;;32.07;28.80;;;;;;;19.56;nan;98753.63;2088845;28;20223;-73
2021/07/16 04:42:24;;;;;;;31.60;28.40;;;;;;;19.63;nan;98761.06;2088613;28;20537;-73
2021/07/16 04:43:25;;;;;;;30.63;27.40;;;;;;;19.64;nan;98758.00;2080041;28;20222;-72
2021/07/16 04:44:28;;;;;;;32.37;28.93;;;;;;;19.67;nan;98761.91;2080433;28;21019;-72
2021/07/16 04:45:36;;;;;;;31.73;28.43;;;;;;;19.68;nan;98764.25;2088515;28;20477;-72
2021/07/16 04:46:37;;;;;;;31.57;28.30;;;;;;;19.72;nan;98762.38;2088868;28;20500;-73
2021/07/16 04:47:39;;;;;;;31.57;28.27;;;;;;;19.75;nan;98767.06;2089022;28;20966;-73
2021/07/16 04:48:39;;;;;;;31.80;28.57;;;;;;;19.81;nan;98770.25;2088545;28;20234;-72
2021/07/16 04:49:42;;;;;;;30.23;27.33;;;;;;;19.88;nan;98762.22;2088051;28;20481;-72
2021/07/16 04:50:42;;;;;;;32.50;29.10;;;;;;;19.96;nan;98761.16;2087896;28;20492;-73